Time;durP1;ratioP1;P1;durP2;ratioP2;P2;SDS_P1;SDS_P2;PMS_P1;PMS_P2;Temp;Humidity;BMP_temperature;BMP_pressure;BME280_temperature;BME280_humidity;BME280_pressure;Samples;Min_cycle;Max_cycle;Signal;HPM_P1;HPM_P2
2022/08/29 00:00:22;;;;;;;;;;;;;;;21.07;57.30;98608.09;5092886;28;20308;-49
2022/08/29 00:02:48;;;;;;;;;;;;;;;21.08;56.97;98615.81;5091598;28;19912;-50
2022/08/29 00:05:14;;;;;;;;;;;;;;;21.11;57.10;98611.81;5091550;28;20011;-49
2022/08/29 00:07:40;;;;;;;;;;;;;;;21.13;57.29;98618.47;5092835;28;20360;-49
2022/08/29 00:10:05;;;;;;;;;;;;;;;21.13;57.43;98615.81;5092751;28;20324;-48
2022/08/29 00:12:31;;;;;;;;;;;;;;;21.18;57.39;98612.31;5091401;28;20396;-48
2022/08/29 00:14:56;;;;;;;;;;;;;;;21.17;57.53;98616.06;5092674;28;19912;-48
2022/08/29 00:17:22;;;;;;;;;;;;;;;21.10;57.54;98615.56;5092653;28;20347;-49
2022/08/29 00:19:47;;;;;;;;;;;;;;;21.03;58.04;98615.06;5092661;28;19912;-49
2022/08/29 00:22:13;;;;;;;;;;;;;;;20.99;58.04;98613.97;5091175;28;19955;-49
2022/08/29 00:24:38;;;;;;;;;;;;;;;20.94;58.47;98612.91;5092816;28;20018;-49
2022/08/29 00:27:04;;;;;;;;;;;;;;;20.94;58.63;98625.44;5092461;28;19957;-49
2022/08/29 00:29:30;;;;;;;;;;;;;;;20.92;58.46;98623.03;5092201;28;20012;-49
2022/08/29 00:31:55;;;;;;;;;;;;;;;20.87;58.64;98617.75;5092389;28;19961;-49
2022/08/29 00:34:21;;;;;;;;;;;;;;;20.81;58.77;98629.47;5092392;28;20373;-49
2022/08/29 00:36:47;;;;;;;;;;;;;;;20.79;58.91;98630.81;5092310;28;19919;-49
2022/08/29 00:39:12;;;;;;;;;;;;;;;20.75;58.94;98633.22;5091376;28;19912;-49
2022/08/29 00:41:37;;;;;;;;;;;;;;;20.75;59.18;98633.22;5092549;28;20042;-49
2022/08/29 00:44:04;;;;;;;;;;;;;;;20.78;59.22;98634.56;5092300;28;20018;-49
2022/08/29 00:46:41;;;;;;;;;;;;;;;20.72;59.19;98639.09;5093732;28;20002;-49
2022/08/29 00:49:20;;;;;;;;;;;;;;;20.76;59.23;98640.16;5099039;28;20293;-49
2022/08/29 00:51:46;;;;;;;;;;;;;;;20.72;59.02;98631.88;5099059;28;20328;-49
2022/08/29 00:54:12;;;;;;;;;;;;;;;20.82;59.12;98640.94;5099003;28;20468;-49
2022/08/29 00:56:40;;;;;;;;;;;;;;;20.91;58.63;98632.13;5097609;28;20015;-49
2022/08/29 00:59:09;;;;;;;;;;;;;;;20.85;58.81;98641.22;5098854;28;19912;-49
2022/08/29 01:01:35;;;;;;;;;;;;;;;20.71;59.02;98637.50;5097569;28;19958;-49
2022/08/29 01:04:01;;;;;;;;;;;;;;;20.60;59.43;98638.56;5098855;28;20419;-50
2022/08/29 01:06:28;;;;;;;;;;;;;;;20.48;59.76;98636.13;5097580;28;19912;-49
2022/08/29 01:08:54;;;;;;;;;;;;;;;20.45;60.00;98632.13;5099403;28;20320;-49
2022/08/29 01:14:04;;;;;;;;;;;;;;;20.66;59.35;98648.16;5099441;28;20312;-49
2022/08/29 01:16:30;;;;;;;;;;;;;;;20.46;59.64;98640.91;5080562;28;19912;-49
2022/08/29 01:18:58;;;;;;;;;;;;;;;20.38;60.14;98639.56;5098769;28;19919;-49
2022/08/29 01:21:32;;;;;;;;;;;;;;;20.27;60.29;98652.09;5098697;28;19941;-49
2022/08/29 01:24:07;;;;;;;;;;;;;;;20.19;60.55;98644.63;5098748;28;19912;-49
2022/08/29 01:26:32;;;;;;;;;;;;;;;20.30;61.10;98650.75;5097401;28;19912;-49
2022/08/29 01:28:58;;;;;;;;;;;;;;;20.30;60.78;98645.44;5097361;28;19919;-49
2022/08/29 01:31:25;;;;;;;;;;;;;;;20.35;60.91;98653.44;5098269;28;19920;-49
2022/08/29 01:33:55;;;;;;;;;;;;;;;20.41;61.42;98648.94;5098627;28;19981;-49
2022/08/29 01:36:26;;;;;;;;;;;;;;;20.15;62.53;98647.00;5098530;28;19919;-49
2022/08/29 01:38:51;;;;;;;;;;;;;;;19.71;63.83;98644.75;5098852;28;20301;-49
2022/08/29 01:41:19;;;;;;;;;;;;;;;19.40;65.34;98640.34;5098561;28;19912;-49
2022/08/29 01:43:50;;;;;;;;;;;;;;;19.16;66.23;98640.75;5098511;28;20454;-49
2022/08/29 01:46:18;;;;;;;;;;;;;;;19.04;66.58;98640.16;5098493;28;19912;-49
2022/08/29 01:48:47;;;;;;;;;;;;;;;18.94;67.73;98639.03;5098513;28;19920;-49
2022/08/29 01:51:13;;;;;;;;;;;;;;;19.07;67.53;98640.44;5098687;28;19916;-50
2022/08/29 01:53:39;;;;;;;;;;;;;;;19.09;67.32;98637.53;5098463;28;20454;-49
2022/08/29 01:56:09;;;;;;;;;;;;;;;19.12;67.32;98637.81;5097066;28;20020;-47
2022/08/29 01:58:34;;;;;;;;;;;;;;;19.18;67.09;98630.66;5094235;28;20296;-48
2022/08/29 02:01:00;;;;;;;;;;;;;;;19.30;67.20;98627.81;5095171;28;20011;-47
2022/08/29 02:03:26;;;;;;;;;;;;;;;19.53;65.88;98637.22;5095173;28;20007;-48
2022/08/29 02:05:51;;;;;;;;;;;;;;;19.66;65.42;98631.41;5095075;28;19912;-46
2022/08/29 02:08:18;;;;;;;;;;;;;;;19.75;65.10;98632.53;5095078;28;19947;-48
2022/08/29 02:10:44;;;;;;;;;;;;;;;19.81;64.88;98630.69;5093596;28;19919;-47
2022/08/29 02:13:10;;;;;;;;;;;;;;;19.93;64.59;98635.78;5094945;28;19966;-49
2022/08/29 02:15:39;;;;;;;;;;;;;;;20.05;63.97;98633.69;5094868;28;19926;-49
2022/08/29 02:18:04;;;;;;;;;;;;;;;20.02;63.74;98626.22;5094850;28;19922;-49
2022/08/29 02:20:31;;;;;;;;;;;;;;;19.84;64.15;98630.19;5094805;28;20006;-49
2022/08/29 02:22:56;;;;;;;;;;;;;;;19.75;64.52;98627.19;5094805;28;20305;-49
2022/08/29 02:25:40;;;;;;;;;;;;;;;19.86;64.97;98624.56;5094747;28;19912;-49
2022/08/29 02:28:05;;;;;;;;;;;;;;;20.13;64.62;98622.50;5094698;28;19927;-49
2022/08/29 02:30:31;;;;;;;;;;;;;;;20.31;63.43;98613.19;5093045;28;19920;-49
2022/08/29 02:32:56;;;;;;;;;;;;;;;20.33;63.22;98619.06;5094577;28;19912;-49
2022/08/29 02:35:21;;;;;;;;;;;;;;;20.34;63.05;98619.84;5093235;28;19912;-49
2022/08/29 02:37:47;;;;;;;;;;;;;;;20.51;62.57;98620.41;5094518;28;19912;-49
2022/08/29 02:40:13;;;;;;;;;;;;;;;20.66;62.02;98630.28;5094429;28;20662;-50
2022/08/29 02:42:39;;;;;;;;;;;;;;;20.72;61.49;98623.06;5094426;28;19951;-50
2022/08/29 02:45:04;;;;;;;;;;;;;;;20.67;61.35;98628.44;5094334;28;20385;-49
2022/08/29 02:47:31;;;;;;;;;;;;;;;20.60;61.51;98628.69;5093000;28;19919;-49
2022/08/29 02:49:57;;;;;;;;;;;;;;;20.47;61.46;98624.66;5092973;28;19962;-49
2022/08/29 02:52:22;;;;;;;;;;;;;;;20.36;61.61;98628.38;5094053;28;19916;-49
2022/08/29 02:54:48;;;;;;;;;;;;;;;20.28;61.69;98637.72;5093159;28;19912;-49
2022/08/29 02:57:13;;;;;;;;;;;;;;;20.27;61.95;98628.13;5094129;28;19959;-49
2022/08/29 02:59:39;;;;;;;;;;;;;;;20.26;62.04;98631.88;5094107;28;19912;-49
2022/08/29 03:02:04;;;;;;;;;;;;;;;20.21;61.89;98631.84;5093980;28;19981;-49
2022/08/29 03:04:30;;;;;;;;;;;;;;;20.11;62.14;98634.50;5093999;28;19912;-49
2022/08/29 03:06:56;;;;;;;;;;;;;;;19.99;62.22;98633.94;5093859;28;19954;-49
2022/08/29 03:09:22;;;;;;;;;;;;;;;19.98;62.61;98627.00;5093701;28;19994;-50
2022/08/29 03:11:47;;;;;;;;;;;;;;;20.21;62.08;98623.84;5092413;28;20006;-48
2022/08/29 03:14:12;;;;;;;;;;;;;;;20.40;61.86;98623.31;5093761;28;19935;-48
2022/08/29 03:16:39;;;;;;;;;;;;;;;20.52;61.52;98619.34;5093683;28;20316;-49
2022/08/29 03:19:05;;;;;;;;;;;;;;;20.60;61.26;98615.34;5092408;28;20007;-49
2022/08/29 03:21:32;;;;;;;;;;;;;;;20.66;60.85;98616.16;5093565;28;19912;-49
2022/08/29 03:23:58;;;;;;;;;;;;;;;20.62;60.69;98621.22;5093531;28;19912;-49
2022/08/29 03:26:23;;;;;;;;;;;;;;;20.57;60.61;98620.41;5093462;28;19916;-49
2022/08/29 03:28:49;;;;;;;;;;;;;;;20.49;60.93;98621.75;5093454;28;19923;-49
2022/08/29 03:31:14;;;;;;;;;;;;;;;20.50;60.68;98618.81;5091872;28;20007;-50
2022/08/29 03:33:40;;;;;;;;;;;;;;;20.44;60.77;98627.84;5093465;28;19912;-49
2022/08/29 03:36:07;;;;;;;;;;;;;;;20.43;60.95;98618.28;5093359;28;19919;-49
2022/08/29 03:38:34;;;;;;;;;;;;;;;20.50;60.84;98618.00;5093318;28;20274;-49
2022/08/29 03:41:04;;;;;;;;;;;;;;;20.45;60.54;98615.34;5093195;28;19912;-49
2022/08/29 03:43:30;;;;;;;;;;;;;;;20.33;60.61;98619.06;5093292;28;19919;-48
2022/08/29 03:45:55;;;;;;;;;;;;;;;20.23;61.02;98628.91;5093211;28;20289;-49
2022/08/29 03:48:21;;;;;;;;;;;;;;;20.15;61.09;98628.38;5093162;28;19919;-49
2022/08/29 03:50:46;;;;;;;;;;;;;;;20.07;61.55;98630.75;5093039;28;20385;-49
2022/08/29 03:53:12;;;;;;;;;;;;;;;20.08;61.61;98627.84;5091745;28;19916;-50
2022/08/29 03:55:37;;;;;;;;;;;;;;;19.95;61.51;98636.31;5091706;28;19950;-49
2022/08/29 03:58:03;;;;;;;;;;;;;;;19.86;62.17;98635.22;5092991;28;20419;-49
2022/08/29 04:00:28;;;;;;;;;;;;;;;19.75;62.50;98650.38;5093145;28;19918;-49
2022/08/29 04:02:57;;;;;;;;;;;;;;;19.72;62.75;98641.06;5091596;28;20313;-49
2022/08/29 04:05:23;;;;;;;;;;;;;;;19.83;62.74;98641.88;5092895;28;19957;-49
2022/08/29 04:07:51;;;;;;;;;;;;;;;19.89;62.44;98640.03;5091570;28;19916;-49
2022/08/29 04:10:19;;;;;;;;;;;;;;;19.73;62.61;98637.31;5092738;28;19912;-49
2022/08/29 04:12:44;;;;;;;;;;;;;;;19.54;62.86;98654.81;5092758;28;19916;-49
2022/08/29 04:15:10;;;;;;;;;;;;;;;19.44;63.57;98649.44;5092757;28;20446;-49
2022/08/29 04:17:36;;;;;;;;;;;;;;;19.29;63.91;98650.13;5092717;28;20029;-49
2022/08/29 04:20:03;;;;;;;;;;;;;;;19.11;63.96;98656.69;5092631;28;19957;-49
2022/08/29 04:22:29;;;;;;;;;;;;;;;19.03;64.46;98657.16;5090807;28;20297;-49
2022/08/29 04:24:54;;;;;;;;;;;;;;;19.02;64.85;98659.03;5092586;28;19919;-49
2022/08/29 04:27:20;;;;;;;;;;;;;;;19.00;64.85;98663.81;5091195;28;19963;-49
2022/08/29 04:29:47;;;;;;;;;;;;;;;18.96;65.11;98668.84;5091004;28;20457;-49
2022/08/29 04:32:12;;;;;;;;;;;;;;;19.00;65.24;98668.34;5092469;28;20324;-49
2022/08/29 04:34:38;;;;;;;;;;;;;;;19.13;65.30;98666.00;5091106;28;19919;-49
2022/08/29 04:37:03;;;;;;;;;;;;;;;19.11;65.17;98667.31;5091114;28;19915;-49
2022/08/29 04:39:29;;;;;;;;;;;;;;;19.07;65.47;98672.34;5092414;28;19916;-49
2022/08/29 04:41:54;;;;;;;;;;;;;;;19.10;65.27;98671.84;5092373;28;20416;-49
2022/08/29 04:44:19;;;;;;;;;;;;;;;19.16;64.85;98678.81;5090988;28;19919;-49
2022/08/29 04:46:45;;;;;;;;;;;;;;;19.25;64.37;98686.31;5090969;28;19912;-47
2022/08/29 04:49:10;;;;;;;;;;;;;;;19.23;64.08;98678.56;5092359;28;19912;-49
2022/08/29 04:51:36;;;;;;;;;;;;;;;19.25;64.00;98687.09;5092160;28;19916;-49
2022/08/29 04:54:03;;;;;;;;;;;;;;;19.22;64.12;98690.28;5090913;28;19963;-49
2022/08/29 04:56:29;;;;;;;;;;;;;;;19.23;63.92;98691.88;5092180;28;20010;-50
2022/08/29 04:58:54;;;;;;;;;;;;;;;19.13;64.13;98691.81;5092256;28;20003;-47
2022/08/29 05:01:21;;;;;;;;;;;;;;;19.14;64.28;98691.56;5092171;28;19918;-48
2022/08/29 05:03:47;;;;;;;;;;;;;;;19.13;64.13;98697.13;5092137;28;19919;-47
2022/08/29 05:06:13;;;;;;;;;;;;;;;19.13;64.18;98699.78;5092146;28;19912;-48
2022/08/29 05:08:40;;;;;;;;;;;;;;;19.11;64.06;98705.38;5090836;28;19952;-48
2022/08/29 05:11:08;;;;;;;;;;;;;;;19.14;64.04;98696.88;5091960;28;19923;-47
2022/08/29 05:13:33;;;;;;;;;;;;;;;19.21;64.27;98698.53;5090738;28;19922;-48
2022/08/29 05:15:59;;;;;;;;;;;;;;;19.30;64.64;98694.34;5090766;28;19921;-49
2022/08/29 05:18:24;;;;;;;;;;;;;;;19.55;64.15;98694.44;5090730;28;20377;-48
2022/08/29 05:20:50;;;;;;;;;;;;;;;20.18;63.22;98695.50;5091931;28;19962;-48
2022/08/29 05:23:16;;;;;;;;;;;;;;;20.93;60.63;98694.03;5090643;28;19957;-48
2022/08/29 05:25:42;;;;;;;;;;;;;;;21.48;58.64;98690.75;5090586;28;19919;-47
2022/08/29 05:28:10;;;;;;;;;;;;;;;21.80;57.55;98695.72;5091934;28;19912;-47
2022/08/29 05:30:38;;;;;;;;;;;;;;;22.15;56.33;98696.63;5091535;28;19927;-48
2022/08/29 05:33:04;;;;;;;;;;;;;;;22.49;55.29;98699.38;5093195;28;19920;-47
2022/08/29 05:35:30;;;;;;;;;;;;;;;22.49;54.61;98695.91;5095799;28;19912;-47
2022/08/29 05:37:55;;;;;;;;;;;;;;;22.59;54.22;98703.84;5095917;28;20283;-48
2022/08/29 05:40:21;;;;;;;;;;;;;;;22.91;53.82;98711.34;5095654;28;20475;-48
2022/08/29 05:42:46;;;;;;;;;;;;;;;23.24;53.39;98711.66;5095584;28;19912;-48
2022/08/29 05:45:12;;;;;;;;;;;;;;;23.90;51.57;98714.69;5094259;28;19912;-47
2022/08/29 05:47:37;;;;;;;;;;;;;;;24.28;50.11;98717.41;5095482;28;20004;-48
2022/08/29 05:50:03;;;;;;;;;;;;;;;24.13;49.96;98719.22;5094111;28;19912;-48
2022/08/29 05:52:29;;;;;;;;;;;;;;;24.00;50.35;98725.28;5095324;28;19923;-48
2022/08/29 05:54:54;;;;;;;;;;;;;;;23.94;51.05;98723.75;5094064;28;19916;-47
2022/08/29 05:57:21;;;;;;;;;;;;;;;24.21;50.86;98733.06;5095277;28;19911;-48
2022/08/29 05:59:48;;;;;;;;;;;;;;;24.59;50.90;98731.22;5095216;28;20308;-47
2022/08/29 06:02:13;;;;;;;;;;;;;;;25.19;49.85;98737.75;5093990;28;19998;-47
2022/08/29 06:04:39;;;;;;;;;;;;;;;25.75;48.69;98734.06;5095129;28;20007;-50
2022/08/29 06:07:05;;;;;;;;;;;;;;;26.07;47.38;98732.38;5093893;28;19938;-48
2022/08/29 06:09:31;;;;;;;;;;;;;;;26.23;46.60;98730.16;5093717;28;19986;-50
2022/08/29 06:11:59;;;;;;;;;;;;;;;26.55;45.44;98739.13;5093638;28;20395;-50
2022/08/29 06:14:25;;;;;;;;;;;;;;;26.92;44.09;98739.91;5093702;28;20435;-48
2022/08/29 06:16:51;;;;;;;;;;;;;;;27.16;44.02;98747.66;5095138;28;19912;-47
2022/08/29 06:19:17;;;;;;;;;;;;;;;27.50;43.12;98744.38;5093623;28;19918;-48
2022/08/29 06:21:42;;;;;;;;;;;;;;;27.79;41.98;98741.16;5093493;28;20010;-48
2022/08/29 06:24:08;;;;;;;;;;;;;;;28.26;41.88;98738.72;5094807;28;19919;-48
2022/08/29 06:26:33;;;;;;;;;;;;;;;28.95;41.22;98744.44;5094688;28;19920;-48
2022/08/29 06:28:59;;;;;;;;;;;;;;;29.57;39.50;98743.19;5094756;28;20005;-49
2022/08/29 06:31:27;;;;;;;;;;;;;;;29.75;38.79;98743.94;5093060;28;19961;-48
2022/08/29 06:33:55;;;;;;;;;;;;;;;29.67;38.93;98740.13;5094642;28;19912;-50
2022/08/29 06:36:20;;;;;;;;;;;;;;;29.92;38.79;98735.69;5094519;28;20468;-49
2022/08/29 06:38:47;;;;;;;;;;;;;;;30.48;37.80;98740.13;5094551;28;19916;-50
2022/08/29 06:41:15;;;;;;;;;;;;;;;31.03;37.10;98739.03;5094470;28;20006;-49
2022/08/29 06:43:40;;;;;;;;;;;;;;;31.03;36.27;98747.16;5094434;28;19916;-48
2022/08/29 06:46:07;;;;;;;;;;;;;;;30.70;36.29;98747.91;5092330;28;20309;-49
2022/08/29 06:48:32;;;;;;;;;;;;;;;30.60;37.94;98745.59;5094284;28;19916;-48
2022/08/29 06:51:01;;;;;;;;;;;;;;;31.37;37.88;98753.31;5094212;28;19961;-50
2022/08/29 06:53:27;;;;;;;;;;;;;;;31.82;35.27;98749.75;5094247;28;19919;-49
2022/08/29 06:55:53;;;;;;;;;;;;;;;32.17;34.80;98741.13;5092856;28;19912;-48
2022/08/29 06:58:18;;;;;;;;;;;;;;;32.38;34.53;98751.84;5094137;28;19912;-48
2022/08/29 07:00:44;;;;;;;;;;;;;;;32.99;34.32;98750.81;5092737;28;19915;-48
2022/08/29 07:03:10;;;;;;;;;;;;;;;34.31;33.19;98752.44;5093977;28;19912;-49
2022/08/29 07:05:35;;;;;;;;;;;;;;;35.54;31.60;98748.13;5093967;28;20043;-49
2022/08/29 07:08:01;;;;;;;;;;;;;;;36.59;30.38;98745.69;5092608;28;19916;-49
2022/08/29 07:10:27;;;;;;;;;;;;;;;37.61;28.96;98743.59;5093831;28;20315;-49
2022/08/29 07:12:52;;;;;;;;;;;;;;;37.79;27.43;98743.69;5092508;28;19951;-49
2022/08/29 07:15:19;;;;;;;;;;;;;;;38.52;27.64;98753.91;5093729;28;19933;-49
2022/08/29 07:17:46;;;;;;;;;;;;;;;39.33;27.27;98747.00;5092506;28;19923;-50
2022/08/29 07:20:12;;;;;;;;;;;;;;;39.86;27.02;98745.44;5093547;28;19912;-51
2022/08/29 07:22:37;;;;;;;;;;;;;;;40.34;26.69;98744.13;5093865;28;19916;-49
2022/08/29 07:25:03;;;;;;;;;;;;;;;40.53;26.63;98742.88;5092290;28;19919;-50
2022/08/29 07:27:28;;;;;;;;;;;;;;;40.67;26.58;98744.75;5075424;28;19912;-50
2022/08/29 07:29:54;;;;;;;;;;;;;;;40.63;25.97;98744.78;5093416;28;19966;-49
2022/08/29 07:32:19;;;;;;;;;;;;;;;40.88;25.20;98741.88;5093365;28;20296;-50
2022/08/29 07:34:45;;;;;;;;;;;;;;;41.15;24.38;98743.28;5093418;28;19912;-48
2022/08/29 07:37:10;;;;;;;;;;;;;;;41.04;23.21;98738.63;5092046;28;19965;-49
2022/08/29 07:39:36;;;;;;;;;;;;;;;40.66;24.22;98740.44;5092056;28;19923;-48
2022/08/29 07:42:02;;;;;;;;;;;;;;;40.94;24.38;98734.00;5093237;28;20003;-49
2022/08/29 07:44:28;;;;;;;;;;;;;;;41.19;23.25;98736.56;5093283;28;19951;-49
2022/08/29 07:46:58;;;;;;;;;;;;;;;41.23;23.42;98740.09;5093238;28;20341;-50
2022/08/29 07:49:27;;;;;;;;;;;;;;;41.70;23.61;98745.22;5093200;28;19957;-50
2022/08/29 07:51:54;;;;;;;;;;;;;;;42.38;23.09;98744.47;5093355;28;20297;-49
2022/08/29 07:54:20;;;;;;;;;;;;;;;43.10;22.34;98737.94;5093060;28;19944;-49
2022/08/29 07:56:46;;;;;;;;;;;;;;;43.48;21.10;98743.25;5090759;28;19962;-48
2022/08/29 07:59:12;;;;;;;;;;;;;;;42.58;21.21;98739.09;5093041;28;19916;-48
2022/08/29 08:01:38;;;;;;;;;;;;;;;42.07;21.27;98740.91;5092951;28;20332;-49
2022/08/29 08:04:05;;;;;;;;;;;;;;;42.49;21.81;98739.59;5093133;28;20270;-48
2022/08/29 08:06:31;;;;;;;;;;;;;;;43.07;21.23;98741.56;5092835;28;19919;-48
2022/08/29 08:08:57;;;;;;;;;;;;;;;43.41;21.56;98735.09;5093117;28;19916;-47
2022/08/29 08:11:24;;;;;;;;;;;;;;;43.86;20.83;98737.47;5092683;28;20418;-49
2022/08/29 08:13:50;;;;;;;;;;;;;;;44.01;20.79;98740.72;5091510;28;20343;-50
2022/08/29 08:16:17;;;;;;;;;;;;;;;44.12;21.19;98730.25;5091409;28;19912;-48
2022/08/29 08:18:43;;;;;;;;;;;;;;;44.41;19.95;98726.88;5092916;28;20313;-49
2022/08/29 08:21:10;;;;;;;;;;;;;;;44.50;20.09;98724.31;5092559;28;19923;-47
2022/08/29 08:23:36;;;;;;;;;;;;;;;45.08;19.85;98731.31;5092621;28;19912;-49
2022/08/29 08:26:02;;;;;;;;;;;;;;;45.60;19.63;98727.63;5092620;28;19919;-48
2022/08/29 08:28:29;;;;;;;;;;;;;;;45.63;18.86;98721.97;5091236;28;20271;-50
2022/08/29 08:30:55;;;;;;;;;;;;;;;45.53;18.74;98730.59;5091018;28;20035;-49
2022/08/29 08:33:21;;;;;;;;;;;;;;;45.64;18.98;98722.75;5091202;28;19998;-49
2022/08/29 08:35:46;;;;;;;;;;;;;;;45.58;19.23;98716.19;5092383;28;20006;-48
2022/08/29 08:38:12;;;;;;;;;;;;;;;45.47;19.28;98719.25;5092728;28;19919;-50
2022/08/29 08:40:40;;;;;;;;;;;;;;;45.37;19.53;98721.09;5091061;28;19912;-50
2022/08/29 08:43:07;;;;;;;;;;;;;;;45.09;19.25;98719.03;5092417;28;19954;-51
2022/08/29 08:45:36;;;;;;;;;;;;;;;44.25;18.51;98720.09;5092232;28;20417;-50
2022/08/29 08:48:10;;;;;;;;;;;;;;;43.17;18.73;98726.00;5092353;28;20404;-49
2022/08/29 08:50:42;;;;;;;;;;;;;;;42.07;19.81;98727.88;5090950;28;19912;-50
2022/08/29 08:53:07;;;;;;;;;;;;;;;41.45;20.65;98721.38;5092205;28;20366;-49
2022/08/29 08:55:53;;;;;;;;;;;;;;;40.85;21.06;98719.88;5092260;28;19919;-50
2022/08/29 08:58:22;;;;;;;;;;;;;;;40.65;21.68;98722.34;5091898;28;20270;-50
2022/08/29 09:00:57;;;;;;;;;;;;;;;40.62;21.84;98718.44;5092243;28;19996;-50
2022/08/29 09:03:29;;;;;;;;;;;;;;;40.66;21.67;98721.94;5092201;28;19912;-50
2022/08/29 09:06:06;;;;;;;;;;;;;;;40.48;21.75;98721.28;5092093;28;20297;-50
2022/08/29 09:08:58;;;;;;;;;;;;;;;39.89;22.26;98719.91;5094363;28;20016;-51
2022/08/29 09:11:30;;;;;;;;;;;;;;;39.74;22.90;98723.84;5094034;28;19919;-49
2022/08/29 09:13:56;;;;;;;;;;;;;;;39.22;22.75;98723.47;5096510;28;19933;-49
2022/08/29 09:16:28;;;;;;;;;;;;;;;39.22;23.32;98720.72;5096118;28;20323;-49
2022/08/29 09:18:58;;;;;;;;;;;;;;;39.83;22.71;98723.44;5094829;28;19961;-49
2022/08/29 09:21:25;;;;;;;;;;;;;;;41.66;21.92;98716.91;5096089;28;19923;-49
2022/08/29 09:23:54;;;;;;;;;;;;;;;43.02;19.35;98723.47;5094785;28;19970;-50
2022/08/29 09:26:21;;;;;;;;;;;;;;;42.98;19.83;98724.72;5095862;28;19919;-50
2022/08/29 09:28:46;;;;;;;;;;;;;;;43.56;19.89;98714.28;5095880;28;19999;-50
2022/08/29 09:31:23;;;;;;;;;;;;;;;44.79;18.62;98716.13;5095626;28;20069;-50
2022/08/29 09:33:57;;;;;;;;;;;;;;;44.19;18.00;98704.41;5095817;28;19916;-48
2022/08/29 09:36:35;;;;;;;;;;;;;;;44.24;18.08;98710.22;5095715;28;19965;-49
2022/08/29 09:39:11;;;;;;;;;;;;;;;44.66;17.99;98704.19;5095688;28;19916;-49
2022/08/29 09:41:37;;;;;;;;;;;;;;;45.16;17.79;98699.44;5095651;28;20429;-50
2022/08/29 09:44:03;;;;;;;;;;;;;;;45.73;16.81;98700.75;5095581;28;20015;-50
2022/08/29 09:46:28;;;;;;;;;;;;;;;45.51;16.91;98699.75;5094209;28;19912;-48
2022/08/29 09:49:03;;;;;;;;;;;;;;;45.59;17.24;98703.91;5095526;28;19942;-49
2022/08/29 09:51:36;;;;;;;;;;;;;;;46.11;17.01;98696.56;5095377;28;19919;-48
2022/08/29 09:54:11;;;;;;;;;;;;;;;46.60;16.41;98699.03;5094131;28;19919;-48
2022/08/29 09:56:38;;;;;;;;;;;;;;;46.91;15.91;98698.47;5094063;28;19930;-48
2022/08/29 09:59:11;;;;;;;;;;;;;;;47.50;15.73;98696.09;5095357;28;19919;-49
2022/08/29 10:01:38;;;;;;;;;;;;;;;47.42;15.27;98690.78;5095297;28;19916;-48
2022/08/29 10:04:07;;;;;;;;;;;;;;;46.40;16.04;98693.66;5095287;28;20374;-50
2022/08/29 10:06:38;;;;;;;;;;;;;;;45.91;16.16;98683.59;5095086;28;19966;-48
2022/08/29 10:09:22;;;;;;;;;;;;;;;45.76;16.09;98680.47;5095148;28;19958;-49
2022/08/29 10:11:50;;;;;;;;;;;;;;;45.26;16.32;98679.03;5095020;28;19959;-50
2022/08/29 10:14:28;;;;;;;;;;;;;;;44.65;16.82;98680.47;5093676;28;20049;-49
2022/08/29 10:19:46;;;;;;;;;;;;;;;45.33;16.89;98670.53;5094186;28;19919;-50
2022/08/29 10:22:12;;;;;;;;;;;;;;;46.10;16.88;98673.56;5094871;28;19912;-50
2022/08/29 10:24:53;;;;;;;;;;;;;;;46.86;15.86;98669.25;5094879;28;19912;-49
2022/08/29 10:27:42;;;;;;;;;;;;;;;47.20;15.84;98664.97;5095069;28;19934;-50
2022/08/29 10:30:13;;;;;;;;;;;;;;;47.74;15.04;98669.41;5094490;28;19915;-50
2022/08/29 10:32:45;;;;;;;;;;;;;;;48.11;14.78;98657.72;5093313;28;19916;-48
2022/08/29 10:35:13;;;;;;;;;;;;;;;48.10;14.28;98658.97;5094623;28;19934;-49
2022/08/29 10:38:12;;;;;;;;;;;;;;;47.79;14.72;98657.66;5094609;28;19940;-50
2022/08/29 10:40:48;;;;;;;;;;;;;;;47.83;14.50;98656.78;5071301;28;19912;-51
2022/08/29 10:43:13;;;;;;;;;;;;;;;47.21;14.59;98658.97;5093152;28;20011;-49
2022/08/29 10:46:00;;;;;;;;;;;;;;;46.54;15.43;98659.16;5094467;28;20071;-50
2022/08/29 10:48:29;;;;;;;;;;;;;;;46.77;15.41;98658.03;5093108;28;19912;-51
2022/08/29 10:51:10;;;;;;;;;;;;;;;46.76;15.23;98659.25;5094486;28;19912;-49
2022/08/29 10:53:39;;;;;;;;;;;;;;;46.62;15.20;98650.16;5094536;28;19920;-50
2022/08/29 10:56:24;;;;;;;;;;;;;;;46.19;15.21;98645.16;5092853;28;19923;-51
2022/08/29 10:59:08;;;;;;;;;;;;;;;45.62;15.63;98645.56;5085415;28;19920;-50
2022/08/29 11:01:42;;;;;;;;;;;;;;;46.02;15.79;98638.88;5092791;28;19912;-51
2022/08/29 11:04:17;;;;;;;;;;;;;;;46.34;14.64;98634.38;5094033;28;20321;-50
2022/08/29 11:06:49;;;;;;;;;;;;;;;46.19;14.82;98631.28;5092721;28;19912;-49
2022/08/29 11:09:20;;;;;;;;;;;;;;;46.31;14.72;98640.84;5093971;28;19916;-49
2022/08/29 11:12:06;;;;;;;;;;;;;;;45.95;15.17;98645.44;5094112;28;19945;-50
2022/08/29 11:14:55;;;;;;;;;;;;;;;46.25;15.00;98632.28;5093429;28;20397;-50
2022/08/29 11:17:22;;;;;;;;;;;;;;;46.62;15.03;98639.03;5088020;28;19912;-49
2022/08/29 11:19:59;;;;;;;;;;;;;;;46.66;14.85;98638.94;5092447;28;19912;-50
2022/08/29 11:22:38;;;;;;;;;;;;;;;46.90;14.68;98639.34;5093608;28;20415;-50
2022/08/29 11:25:06;;;;;;;;;;;;;;;46.81;14.51;98640.03;5093981;28;19916;-50
2022/08/29 11:27:41;;;;;;;;;;;;;;;45.90;14.60;98631.34;5093912;28;19934;-50
2022/08/29 11:30:11;;;;;;;;;;;;;;;45.37;14.78;98645.50;5093260;28;20003;-51
2022/08/29 11:32:52;;;;;;;;;;;;;;;44.66;14.99;98632.22;5093384;28;19920;-50
2022/08/29 11:35:23;;;;;;;;;;;;;;;44.02;15.71;98639.94;5093513;28;19912;-51
2022/08/29 11:37:48;;;;;;;;;;;;;;;43.49;15.43;98634.28;5093449;28;19912;-50
2022/08/29 11:40:36;;;;;;;;;;;;;;;43.66;15.65;98629.59;5092033;28;20294;-50
2022/08/29 11:43:02;;;;;;;;;;;;;;;44.09;15.75;98625.97;5093598;28;19919;-51
2022/08/29 11:45:31;;;;;;;;;;;;;;;44.12;15.30;98622.34;5093229;28;19951;-51
2022/08/29 11:48:00;;;;;;;;;;;;;;;44.55;15.19;98610.31;5091943;28;20384;-50
2022/08/29 11:50:32;;;;;;;;;;;;;;;45.05;15.32;98609.06;5093181;28;19946;-51
2022/08/29 11:52:58;;;;;;;;;;;;;;;45.39;15.17;98615.34;5093034;28;19912;-51
2022/08/29 11:55:46;;;;;;;;;;;;;;;45.32;14.62;98619.09;5093070;28;19912;-51
2022/08/29 11:58:14;;;;;;;;;;;;;;;45.23;15.09;98618.91;5087032;28;19912;-48
2022/08/29 12:00:45;;;;;;;;;;;;;;;45.36;14.89;98619.78;5091723;28;20381;-51
2022/08/29 12:03:29;;;;;;;;;;;;;;;45.14;14.37;98613.19;5091655;28;19912;-50
2022/08/29 12:06:00;;;;;;;;;;;;;;;44.87;14.61;98614.31;5092925;28;19941;-49
2022/08/29 12:08:38;;;;;;;;;;;;;;;44.71;14.42;98615.06;5092897;28;19926;-51
2022/08/29 12:11:05;;;;;;;;;;;;;;;44.42;14.40;98612.19;5092750;28;19918;-51
2022/08/29 12:13:42;;;;;;;;;;;;;;;44.02;14.54;98612.28;5092800;28;19912;-49
2022/08/29 12:16:08;;;;;;;;;;;;;;;43.56;15.00;98612.00;5091424;28;19919;-49
2022/08/29 12:18:38;;;;;;;;;;;;;;;43.04;14.99;98618.88;5093005;28;19945;-50
2022/08/29 12:21:24;;;;;;;;;;;;;;;42.83;15.55;98622.78;5092844;28;19919;-49
2022/08/29 12:23:49;;;;;;;;;;;;;;;42.50;15.42;98622.53;5092580;28;20370;-50
2022/08/29 12:26:33;;;;;;;;;;;;;;;42.53;16.23;98618.13;5092540;28;19919;-49
2022/08/29 12:29:00;;;;;;;;;;;;;;;42.76;15.99;98609.06;5092578;28;19919;-50
2022/08/29 12:31:29;;;;;;;;;;;;;;;42.98;15.20;98615.03;5092194;28;19916;-51
2022/08/29 12:34:13;;;;;;;;;;;;;;;42.89;15.71;98609.31;5092506;28;20393;-51
2022/08/29 12:36:53;;;;;;;;;;;;;;;42.78;15.62;98611.41;5092430;28;19955;-51
2022/08/29 12:39:19;;;;;;;;;;;;;;;43.01;15.24;98608.69;5092436;28;19953;-49
2022/08/29 12:41:45;;;;;;;;;;;;;;;42.75;14.83;98602.00;5092210;28;20016;-51
2022/08/29 12:44:15;;;;;;;;;;;;;;;42.06;15.15;98604.22;5092046;28;19916;-50
2022/08/29 12:46:47;;;;;;;;;;;;;;;41.96;15.78;98597.63;5092295;28;19915;-49
2022/08/29 12:49:17;;;;;;;;;;;;;;;42.15;15.53;98592.66;5091049;28;19963;-50
2022/08/29 12:51:46;;;;;;;;;;;;;;;42.18;15.95;98584.34;5090966;28;19921;-49
2022/08/29 12:54:12;;;;;;;;;;;;;;;42.06;16.04;98601.47;5090976;28;20271;-49
2022/08/29 12:56:46;;;;;;;;;;;;;;;42.06;15.66;98590.44;5092487;28;19922;-50
2022/08/29 12:59:16;;;;;;;;;;;;;;;42.20;16.33;98593.00;5091017;28;20336;-49